Etusivu
METAR-TAF:

METAR-TAF

Lentoasemat :

Nouakchott, Mauritania

Nouakchottin kansainvälinen lentoasema

Leveyspiiri: 18-18-36N, Pituuspiiri: 015-58-11W, korkeus merenpinnasta: 3 m

Tämänhetkinen sää

Tämä raportti tehtiin 38 minuuttia sitten, kello 18.30 UTC
Tuuli 19 kn luoteesta
Lämpötila 28°C
Kosteus 66%
Ilmanpaine 1012 hPa
Näkyvyys 10 km tai enemmän
ei pilviä alle 1500 m:ssä eikä cumulonimbus-pilviä

METAR: GQNO 231830Z 32019KT CAVOK 28/21 Q1012 NOSIG

Aika: 19:08 (19:08 UTC)

Sääennuste

Tämä raportti tehtiin 2 tuntia ja 8 minuuttia sitten, kello 17.00 UTC
Ennuste voimassa 23. päivästä klo 18 UTC - 24. päivään klo 24 UTC
Tuuli 15 kn pohjoisen/luoteesta
Näkyvyys: 6000 m
Muutamia pilviä 2000 ft:n korkeudessa
Tulossa
23. päivästä klo 19 UTC - 23. päivään klo 21 UTC

TAF: GQNO 231700Z 2318/2424 33015KT 6000 FEW020 BECMG 2319/2321 NSC

Säähavainnot ja -ennusteet yli 4000 lentoasemalta (METAR- ja TAF-raportit).

Käytössä olevat sääasemat on merkitty karttaan keltaisilla ja punaisilla pisteillä.

Aseta hiiri pisteen päälle nähdäksesi sääaseman nimen.

Klikkaa sitten nähdäksesi säähavainnot ja -ennusteet.

Kartan vaihtaminen: klikkaa mustalla rastilla varustettuja vihreitä pisteitä, niin voit zoomata sisään; viivalla varustettua vihreää pistettä, niin voit zoomata ulos tai vihreitä nuolia, niin pääset viereisille kartoille.


METAR-TAF: